sensor_id;sensor_type;location;lat;lon;timestamp;pressure;altitude;pressure_sealevel;temperature;humidity
44663;BME280;30381;52.754;18.258;2023-04-30T01:06:57;100816.34;;;6.10;100.00
44663;BME280;30381;52.754;18.258;2023-04-30T01:18:40;100836.33;;;5.90;100.00
44663;BME280;30381;52.754;18.258;2023-04-30T02:14:36;100895.30;;;5.06;100.00
44663;BME280;30381;52.754;18.258;2023-04-30T02:17:15;100889.33;;;5.03;100.00
44663;BME280;30381;52.754;18.258;2023-04-30T02:20:16;100888.86;;;5.00;100.00
44663;BME280;30381;52.754;18.258;2023-04-30T02:23:22;100889.50;;;4.95;100.00
44663;BME280;30381;52.754;18.258;2023-04-30T02:46:11;100911.86;;;4.58;100.00
44663;BME280;30381;52.754;18.258;2023-04-30T02:48:49;100912.83;;;4.54;100.00
44663;BME280;30381;52.754;18.258;2023-04-30T02:54:20;100918.77;;;4.46;100.00
44663;BME280;30381;52.754;18.258;2023-04-30T02:57:17;100921.55;;;4.41;100.00
44663;BME280;30381;52.754;18.258;2023-04-30T03:00:57;100924.83;;;4.36;100.00
44663;BME280;30381;52.754;18.258;2023-04-30T03:03:50;100928.12;;;4.32;100.00
44663;BME280;30381;52.754;18.258;2023-04-30T03:23:44;100940.39;;;4.14;100.00
44663;BME280;30381;52.754;18.258;2023-04-30T03:26:53;100942.24;;;4.13;100.00
44663;BME280;30381;52.754;18.258;2023-04-30T03:29:34;100944.56;;;4.17;100.00
44663;BME280;30381;52.754;18.258;2023-04-30T03:46:19;100961.88;;;4.38;100.00
44663;BME280;30381;52.754;18.258;2023-04-30T03:49:00;100970.81;;;4.44;100.00
44663;BME280;30381;52.754;18.258;2023-04-30T03:51:39;100977.55;;;4.63;100.00
44663;BME280;30381;52.754;18.258;2023-04-30T03:54:30;100973.69;;;4.90;100.00
44663;BME280;30381;52.754;18.258;2023-04-30T03:57:38;100978.96;;;4.95;100.00
44663;BME280;30381;52.754;18.258;2023-04-30T04:01:06;100980.23;;;5.09;100.00
44663;BME280;30381;52.754;18.258;2023-04-30T04:04:12;100977.42;;;6.35;100.00
44663;BME280;30381;52.754;18.258;2023-04-30T04:07:03;100977.94;;;7.67;100.00
44663;BME280;30381;52.754;18.258;2023-04-30T04:10:29;100980.64;;;8.96;100.00
44663;BME280;30381;52.754;18.258;2023-04-30T04:16:36;100986.11;;;11.16;100.00
44663;BME280;30381;52.754;18.258;2023-04-30T06:57:33;101133.36;;;18.32;57.68
44663;BME280;30381;52.754;18.258;2023-04-30T07:00:38;101143.03;;;17.98;58.72
44663;BME280;30381;52.754;18.258;2023-04-30T07:03:19;101139.21;;;17.96;58.74
44663;BME280;30381;52.754;18.258;2023-04-30T07:05:58;101145.42;;;17.94;58.31
44663;BME280;30381;52.754;18.258;2023-04-30T07:08:27;101141.66;;;17.93;58.37
44663;BME280;30381;52.754;18.258;2023-04-30T07:11:12;101144.09;;;18.16;58.70
44663;BME280;30381;52.754;18.258;2023-04-30T07:13:39;101148.46;;;18.28;56.50
44663;BME280;30381;52.754;18.258;2023-04-30T07:16:10;101148.06;;;17.96;53.51
44663;BME280;30381;52.754;18.258;2023-04-30T07:18:44;101156.00;;;17.69;54.05
44663;BME280;30381;52.754;18.258;2023-04-30T07:21:15;101152.94;;;17.39;54.27
44663;BME280;30381;52.754;18.258;2023-04-30T07:24:19;101150.98;;;17.33;54.93
44663;BME280;30381;52.754;18.258;2023-04-30T07:58:14;101177.29;;;16.74;52.11
44663;BME280;30381;52.754;18.258;2023-04-30T08:00:41;101182.85;;;16.97;53.46
44663;BME280;30381;52.754;18.258;2023-04-30T08:03:18;101180.22;;;17.30;53.65
44663;BME280;30381;52.754;18.258;2023-04-30T08:06:13;101181.86;;;17.43;52.63
44663;BME280;30381;52.754;18.258;2023-04-30T08:08:59;101187.83;;;17.28;51.49
44663;BME280;30381;52.754;18.258;2023-04-30T08:11:52;101184.98;;;17.09;49.82
44663;BME280;30381;52.754;18.258;2023-04-30T08:14:26;101187.71;;;16.90;49.42
44663;BME280;30381;52.754;18.258;2023-04-30T08:17:19;101187.04;;;16.87;51.10
44663;BME280;30381;52.754;18.258;2023-04-30T08:19:45;101190.22;;;17.06;51.05
44663;BME280;30381;52.754;18.258;2023-04-30T08:22:32;101190.17;;;16.99;50.41
44663;BME280;30381;52.754;18.258;2023-04-30T08:25:15;101192.20;;;17.07;51.10
44663;BME280;30381;52.754;18.258;2023-04-30T08:27:44;101195.80;;;17.29;51.17
44663;BME280;30381;52.754;18.258;2023-04-30T08:30:21;101202.31;;;17.34;50.68
44663;BME280;30381;52.754;18.258;2023-04-30T08:32:50;101203.41;;;17.41;50.00
44663;BME280;30381;52.754;18.258;2023-04-30T08:35:36;101203.13;;;17.44;49.62
44663;BME280;30381;52.754;18.258;2023-04-30T08:38:02;101201.30;;;17.48;48.92
44663;BME280;30381;52.754;18.258;2023-04-30T08:40:38;101198.09;;;17.55;49.69
44663;BME280;30381;52.754;18.258;2023-04-30T08:43:06;101194.34;;;17.57;48.08
44663;BME280;30381;52.754;18.258;2023-04-30T08:45:34;101206.23;;;17.41;46.60
44663;BME280;30381;52.754;18.258;2023-04-30T08:48:01;101204.65;;;17.18;46.36
44663;BME280;30381;52.754;18.258;2023-04-30T08:50:31;101202.80;;;17.08;47.62
44663;BME280;30381;52.754;18.258;2023-04-30T08:52:58;101204.44;;;17.20;46.62
44663;BME280;30381;52.754;18.258;2023-04-30T08:55:32;101206.32;;;17.13;46.73
44663;BME280;30381;52.754;18.258;2023-04-30T08:58:04;101209.30;;;17.20;46.46
44663;BME280;30381;52.754;18.258;2023-04-30T09:00:34;101210.62;;;17.20;45.77
44663;BME280;30381;52.754;18.258;2023-04-30T09:03:20;101213.48;;;17.23;46.50
44663;BME280;30381;52.754;18.258;2023-04-30T09:05:48;101208.93;;;17.32;46.98
44663;BME280;30381;52.754;18.258;2023-04-30T09:08:18;101206.54;;;17.47;46.18
44663;BME280;30381;52.754;18.258;2023-04-30T09:10:45;101210.77;;;17.55;45.47
44663;BME280;30381;52.754;18.258;2023-04-30T09:13:12;101214.85;;;17.47;44.18
44663;BME280;30381;52.754;18.258;2023-04-30T09:15:38;101215.31;;;17.40;43.05
44663;BME280;30381;52.754;18.258;2023-04-30T09:18:18;101222.69;;;17.29;43.50
44663;BME280;30381;52.754;18.258;2023-04-30T09:20:59;101221.34;;;17.22;43.66
44663;BME280;30381;52.754;18.258;2023-04-30T09:23:35;101220.04;;;17.23;43.85
44663;BME280;30381;52.754;18.258;2023-04-30T09:28:34;101220.03;;;17.12;42.05
44663;BME280;30381;52.754;18.258;2023-04-30T09:31:18;101224.67;;;17.02;41.44
44663;BME280;30381;52.754;18.258;2023-04-30T09:33:47;101226.37;;;17.04;42.25
44663;BME280;30381;52.754;18.258;2023-04-30T09:36:13;101224.56;;;17.13;42.35
44663;BME280;30381;52.754;18.258;2023-04-30T09:38:39;101224.57;;;17.13;41.98
44663;BME280;30381;52.754;18.258;2023-04-30T09:41:27;101227.14;;;16.98;41.08
44663;BME280;30381;52.754;18.258;2023-04-30T09:43:55;101222.91;;;16.75;41.10
44663;BME280;30381;52.754;18.258;2023-04-30T09:46:31;101227.64;;;16.73;41.71
44663;BME280;30381;52.754;18.258;2023-04-30T09:49:02;101225.02;;;16.72;40.93
44663;BME280;30381;52.754;18.258;2023-04-30T09:51:30;101223.09;;;16.70;40.76
44663;BME280;30381;52.754;18.258;2023-04-30T09:53:57;101224.52;;;16.65;40.56
44663;BME280;30381;52.754;18.258;2023-04-30T09:56:25;101221.94;;;16.63;40.94
44663;BME280;30381;52.754;18.258;2023-04-30T09:58:55;101216.86;;;16.71;41.51
44663;BME280;30381;52.754;18.258;2023-04-30T10:01:27;101221.10;;;16.83;40.94
44663;BME280;30381;52.754;18.258;2023-04-30T10:03:53;101215.93;;;16.78;40.83
44663;BME280;30381;52.754;18.258;2023-04-30T10:06:20;101216.95;;;16.85;41.74
44663;BME280;30381;52.754;18.258;2023-04-30T10:09:01;101217.05;;;16.89;41.72
44663;BME280;30381;52.754;18.258;2023-04-30T10:11:31;101217.71;;;16.83;41.49
44663;BME280;30381;52.754;18.258;2023-04-30T10:14:07;101215.31;;;16.75;41.04
44663;BME280;30381;52.754;18.258;2023-04-30T10:19:29;101210.63;;;16.85;41.04
44663;BME280;30381;52.754;18.258;2023-04-30T10:33:27;101210.31;;;17.04;42.42
44663;BME280;30381;52.754;18.258;2023-04-30T10:36:02;101210.27;;;17.05;40.82
44663;BME280;30381;52.754;18.258;2023-04-30T10:38:31;101205.89;;;16.78;39.92
44663;BME280;30381;52.754;18.258;2023-04-30T10:40:59;101204.26;;;16.54;40.72
44663;BME280;30381;52.754;18.258;2023-04-30T10:43:29;101204.47;;;16.52;40.58
44663;BME280;30381;52.754;18.258;2023-04-30T10:45:57;101205.96;;;16.36;40.35
44663;BME280;30381;52.754;18.258;2023-04-30T10:48:25;101196.39;;;16.22;41.00
44663;BME280;30381;52.754;18.258;2023-04-30T10:50:55;101194.10;;;16.22;40.95
44663;BME280;30381;52.754;18.258;2023-04-30T10:53:23;101193.64;;;16.24;41.50
44663;BME280;30381;52.754;18.258;2023-04-30T10:56:00;101191.45;;;16.43;42.08
44663;BME280;30381;52.754;18.258;2023-04-30T10:58:35;101192.70;;;16.66;41.51
44663;BME280;30381;52.754;18.258;2023-04-30T11:01:10;101188.40;;;16.69;41.42
44663;BME280;30381;52.754;18.258;2023-04-30T11:03:41;101186.55;;;16.77;41.28
44663;BME280;30381;52.754;18.258;2023-04-30T11:06:13;101190.78;;;16.72;40.89
44663;BME280;30381;52.754;18.258;2023-04-30T11:09:02;101191.04;;;16.71;41.31
44663;BME280;30381;52.754;18.258;2023-04-30T11:11:32;101193.42;;;16.78;40.80
44663;BME280;30381;52.754;18.258;2023-04-30T11:13:59;101197.95;;;16.78;40.75
44663;BME280;30381;52.754;18.258;2023-04-30T11:30:31;101200.95;;;16.85;40.45
44663;BME280;30381;52.754;18.258;2023-04-30T11:38:38;101197.30;;;16.92;40.40
44663;BME280;30381;52.754;18.258;2023-04-30T11:41:13;101192.25;;;17.00;40.80
44663;BME280;30381;52.754;18.258;2023-04-30T11:43:39;101195.02;;;17.06;40.86
44663;BME280;30381;52.754;18.258;2023-04-30T11:48:37;101201.41;;;16.96;39.66
44663;BME280;30381;52.754;18.258;2023-04-30T11:51:17;101197.48;;;16.79;39.52
44663;BME280;30381;52.754;18.258;2023-04-30T11:53:49;101201.14;;;16.65;40.12
44663;BME280;30381;52.754;18.258;2023-04-30T11:56:22;101197.56;;;16.74;40.39
44663;BME280;30381;52.754;18.258;2023-04-30T11:59:09;101203.80;;;16.85;40.53
44663;BME280;30381;52.754;18.258;2023-04-30T12:01:42;101205.56;;;16.88;40.22
44663;BME280;30381;52.754;18.258;2023-04-30T12:04:14;101203.35;;;16.84;39.99
44663;BME280;30381;52.754;18.258;2023-04-30T12:06:45;101202.05;;;16.86;40.66
44663;BME280;30381;52.754;18.258;2023-04-30T12:11:59;101194.53;;;17.06;40.65
44663;BME280;30381;52.754;18.258;2023-04-30T12:14:27;101200.91;;;17.06;39.87
44663;BME280;30381;52.754;18.258;2023-04-30T12:16:54;101196.48;;;17.02;40.23
44663;BME280;30381;52.754;18.258;2023-04-30T12:19:21;101200.97;;;17.03;40.32
44663;BME280;30381;52.754;18.258;2023-04-30T12:21:50;101196.54;;;17.02;40.31
44663;BME280;30381;52.754;18.258;2023-04-30T12:24:19;101199.39;;;17.06;40.42
44663;BME280;30381;52.754;18.258;2023-04-30T12:26:46;101194.95;;;17.11;40.61
44663;BME280;30381;52.754;18.258;2023-04-30T12:29:21;101199.60;;;17.25;40.54
44663;BME280;30381;52.754;18.258;2023-04-30T12:40:21;101197.71;;;17.28;40.24
44663;BME280;30381;52.754;18.258;2023-04-30T12:43:01;101192.40;;;17.29;40.28
44663;BME280;30381;52.754;18.258;2023-04-30T12:45:43;101186.70;;;17.33;40.60
44663;BME280;30381;52.754;18.258;2023-04-30T12:48:13;101185.64;;;17.43;40.49
44663;BME280;30381;52.754;18.258;2023-04-30T12:50:59;101182.83;;;17.38;40.06
44663;BME280;30381;52.754;18.258;2023-04-30T12:58:47;101189.64;;;17.08;39.20
44663;BME280;30381;52.754;18.258;2023-04-30T13:01:21;101188.79;;;17.04;39.75
44663;BME280;30381;52.754;18.258;2023-04-30T13:03:54;101190.27;;;17.09;39.79
44663;BME280;30381;52.754;18.258;2023-04-30T13:06:23;101188.31;;;17.16;40.10
44663;BME280;30381;52.754;18.258;2023-04-30T13:08:49;101186.80;;;17.21;39.90
44663;BME280;30381;52.754;18.258;2023-04-30T13:11:15;101181.15;;;17.27;40.20
44663;BME280;30381;52.754;18.258;2023-04-30T13:22:03;101185.99;;;17.23;39.70
44663;BME280;30381;52.754;18.258;2023-04-30T13:24:29;101180.48;;;17.29;39.71
44663;BME280;30381;52.754;18.258;2023-04-30T13:27:15;101177.29;;;17.32;39.56
44663;BME280;30381;52.754;18.258;2023-04-30T13:29:49;101181.14;;;17.25;39.26
44663;BME280;30381;52.754;18.258;2023-04-30T13:34:57;101175.45;;;17.16;39.42
44663;BME280;30381;52.754;18.258;2023-04-30T13:40:38;101177.54;;;16.96;38.63
44663;BME280;30381;52.754;18.258;2023-04-30T13:43:07;101171.40;;;16.94;38.80
44663;BME280;30381;52.754;18.258;2023-04-30T13:45:47;101169.69;;;16.90;39.04
44663;BME280;30381;52.754;18.258;2023-04-30T13:48:38;101163.27;;;16.93;38.95
44663;BME280;30381;52.754;18.258;2023-04-30T13:51:14;101164.02;;;16.94;39.18
44663;BME280;30381;52.754;18.258;2023-04-30T13:56:54;101165.99;;;17.04;39.16
44663;BME280;30381;52.754;18.258;2023-04-30T14:18:52;101164.25;;;16.96;39.33
44663;BME280;30381;52.754;18.258;2023-04-30T14:21:18;101156.63;;;16.97;39.25
44663;BME280;30381;52.754;18.258;2023-04-30T14:24:07;101164.06;;;17.00;39.31
44663;BME280;30381;52.754;18.258;2023-04-30T14:26:33;101160.85;;;16.92;39.10
44663;BME280;30381;52.754;18.258;2023-04-30T14:31:47;101162.17;;;16.74;38.58
44663;BME280;30381;52.754;18.258;2023-04-30T14:45:46;101167.48;;;16.50;38.97
44663;BME280;30381;52.754;18.258;2023-04-30T14:48:51;101167.39;;;16.39;38.14
44663;BME280;30381;52.754;18.258;2023-04-30T14:54:15;101171.45;;;16.08;38.04
44663;BME280;30381;52.754;18.258;2023-04-30T14:56:44;101170.96;;;15.92;38.23
44663;BME280;30381;52.754;18.258;2023-04-30T14:59:15;101166.35;;;15.84;38.26
44663;BME280;30381;52.754;18.258;2023-04-30T15:01:42;101176.92;;;15.74;38.58
44663;BME280;30381;52.754;18.258;2023-04-30T15:04:14;101177.65;;;15.70;38.91
44663;BME280;30381;52.754;18.258;2023-04-30T15:06:41;101174.43;;;15.70;38.90
44663;BME280;30381;52.754;18.258;2023-04-30T15:09:23;101173.16;;;15.68;38.68
44663;BME280;30381;52.754;18.258;2023-04-30T15:14:37;101171.58;;;15.62;38.88
44663;BME280;30381;52.754;18.258;2023-04-30T15:22:57;101175.21;;;15.53;38.76
44663;BME280;30381;52.754;18.258;2023-04-30T15:25:24;101166.67;;;15.42;38.71
44663;BME280;30381;52.754;18.258;2023-04-30T15:27:53;101164.38;;;15.37;38.87
44663;BME280;30381;52.754;18.258;2023-04-30T15:30:21;101163.71;;;15.32;38.56
44663;BME280;30381;52.754;18.258;2023-04-30T15:32:48;101160.51;;;15.24;38.85
44663;BME280;30381;52.754;18.258;2023-04-30T15:35:24;101167.90;;;15.21;38.63
44663;BME280;30381;52.754;18.258;2023-04-30T15:37:52;101169.79;;;15.12;38.34
44663;BME280;30381;52.754;18.258;2023-04-30T15:40:18;101170.90;;;15.02;38.54
44663;BME280;30381;52.754;18.258;2023-04-30T16:01:20;101175.15;;;14.65;39.21
44663;BME280;30381;52.754;18.258;2023-04-30T16:03:49;101176.05;;;14.60;39.24
44663;BME280;30381;52.754;18.258;2023-04-30T16:06:15;101175.70;;;14.54;39.41
44663;BME280;30381;52.754;18.258;2023-04-30T16:08:44;101174.73;;;14.49;39.31
44663;BME280;30381;52.754;18.258;2023-04-30T16:11:34;101171.84;;;14.41;39.29
44663;BME280;30381;52.754;18.258;2023-04-30T16:14:01;101169.26;;;14.31;39.60
44663;BME280;30381;52.754;18.258;2023-04-30T16:16:30;101166.05;;;14.29;39.72
44663;BME280;30381;52.754;18.258;2023-04-30T16:18:56;101169.07;;;14.23;39.91
44663;BME280;30381;52.754;18.258;2023-04-30T16:21:24;101166.46;;;14.17;40.26
44663;BME280;30381;52.754;18.258;2023-04-30T16:23:52;101169.05;;;14.13;40.48
44663;BME280;30381;52.754;18.258;2023-04-30T16:26:21;101163.94;;;14.09;40.58
44663;BME280;30381;52.754;18.258;2023-04-30T16:28:48;101166.89;;;14.04;40.64
44663;BME280;30381;52.754;18.258;2023-04-30T16:31:15;101164.98;;;13.98;40.72
44663;BME280;30381;52.754;18.258;2023-04-30T16:33:42;101160.85;;;13.95;40.79
44663;BME280;30381;52.754;18.258;2023-04-30T16:36:10;101163.08;;;13.89;40.95
44663;BME280;30381;52.754;18.258;2023-04-30T16:38:40;101164.61;;;13.83;40.86
44663;BME280;30381;52.754;18.258;2023-04-30T16:41:10;101161.15;;;13.78;41.08
44663;BME280;30381;52.754;18.258;2023-04-30T16:43:41;101159.48;;;13.73;41.30
44663;BME280;30381;52.754;18.258;2023-04-30T16:46:11;101161.05;;;13.69;41.59
44663;BME280;30381;52.754;18.258;2023-04-30T16:48:38;101162.71;;;13.64;41.36
44663;BME280;30381;52.754;18.258;2023-04-30T16:51:06;101165.39;;;13.59;41.37
44663;BME280;30381;52.754;18.258;2023-04-30T16:53:35;101166.75;;;13.52;41.52
44663;BME280;30381;52.754;18.258;2023-04-30T16:56:01;101172.25;;;13.45;41.70
44663;BME280;30381;52.754;18.258;2023-04-30T16:58:28;101173.10;;;13.40;41.69
44663;BME280;30381;52.754;18.258;2023-04-30T17:00:54;101175.35;;;13.32;41.72
44663;BME280;30381;52.754;18.258;2023-04-30T17:03:21;101172.60;;;13.28;41.97
44663;BME280;30381;52.754;18.258;2023-04-30T17:05:51;101173.71;;;13.24;42.13
44663;BME280;30381;52.754;18.258;2023-04-30T17:08:17;101175.92;;;13.18;42.24
44663;BME280;30381;52.754;18.258;2023-04-30T17:10:54;101181.71;;;13.10;42.19
44663;BME280;30381;52.754;18.258;2023-04-30T17:13:26;101184.90;;;13.00;42.32
44663;BME280;30381;52.754;18.258;2023-04-30T17:16:31;101186.52;;;12.90;42.43
44663;BME280;30381;52.754;18.258;2023-04-30T17:19:06;101186.67;;;12.82;42.73
44663;BME280;30381;52.754;18.258;2023-04-30T17:26:13;101189.69;;;12.63;43.07
44663;BME280;30381;52.754;18.258;2023-04-30T17:36:34;101196.27;;;12.35;43.70
44663;BME280;30381;52.754;18.258;2023-04-30T17:39:12;101197.13;;;12.27;43.64
44663;BME280;30381;52.754;18.258;2023-04-30T17:45:37;101204.45;;;12.09;43.70
44663;BME280;30381;52.754;18.258;2023-04-30T17:48:55;101203.68;;;11.98;43.81
44663;BME280;30381;52.754;18.258;2023-04-30T17:51:41;101203.35;;;11.88;43.95
44663;BME280;30381;52.754;18.258;2023-04-30T17:54:30;101203.60;;;11.79;44.15
44663;BME280;30381;52.754;18.258;2023-04-30T17:57:00;101206.30;;;11.70;44.06
44663;BME280;30381;52.754;18.258;2023-04-30T17:59:54;101210.16;;;11.59;44.23
44663;BME280;30381;52.754;18.258;2023-04-30T18:03:18;101207.91;;;11.48;44.33
44663;BME280;30381;52.754;18.258;2023-04-30T18:10:03;101214.86;;;11.21;44.68
44663;BME280;30381;52.754;18.258;2023-04-30T18:24:21;101227.05;;;11.31;45.12
44663;BME280;30381;52.754;18.258;2023-04-30T18:27:53;101233.85;;;11.05;45.66
44663;BME280;30381;52.754;18.258;2023-04-30T18:30:24;101240.73;;;10.88;45.94
44663;BME280;30381;52.754;18.258;2023-04-30T18:32:50;101241.20;;;10.73;46.18
44663;BME280;30381;52.754;18.258;2023-04-30T18:35:21;101240.73;;;10.61;46.40
44663;BME280;30381;52.754;18.258;2023-04-30T18:37:59;101242.70;;;10.47;46.75
44663;BME280;30381;52.754;18.258;2023-04-30T18:40:30;101242.52;;;10.35;47.00
44663;BME280;30381;52.754;18.258;2023-04-30T18:42:58;101241.52;;;10.22;47.19
44663;BME280;30381;52.754;18.258;2023-04-30T18:45:27;101243.55;;;10.11;47.26
44663;BME280;30381;52.754;18.258;2023-04-30T19:06:51;101262.25;;;9.27;48.93
44663;BME280;30381;52.754;18.258;2023-04-30T19:23:47;101270.80;;;9.30;49.39
44663;BME280;30381;52.754;18.258;2023-04-30T19:34:40;101275.30;;;8.77;50.24
44663;BME280;30381;52.754;18.258;2023-04-30T19:37:07;101274.74;;;8.66;50.55
44663;BME280;30381;52.754;18.258;2023-04-30T19:39:33;101281.04;;;8.57;50.81
44663;BME280;30381;52.754;18.258;2023-04-30T19:42:01;101282.56;;;8.49;51.06
44663;BME280;30381;52.754;18.258;2023-04-30T19:44:39;101283.83;;;8.41;51.16
44663;BME280;30381;52.754;18.258;2023-04-30T19:47:05;101289.05;;;8.33;51.42
44663;BME280;30381;52.754;18.258;2023-04-30T19:49:32;101288.84;;;8.26;51.60
44663;BME280;30381;52.754;18.258;2023-04-30T19:52:09;101286.67;;;8.20;52.03
44663;BME280;30381;52.754;18.258;2023-04-30T19:54:58;101288.77;;;8.17;51.91
44663;BME280;30381;52.754;18.258;2023-04-30T19:57:31;101289.46;;;8.12;51.93
44663;BME280;30381;52.754;18.258;2023-04-30T20:00:08;101289.46;;;8.09;52.19
44663;BME280;30381;52.754;18.258;2023-04-30T20:02:36;101290.25;;;8.06;52.44
44663;BME280;30381;52.754;18.258;2023-04-30T20:13:48;101302.62;;;7.90;53.05
44663;BME280;30381;52.754;18.258;2023-04-30T20:20:18;101302.62;;;7.83;53.31
44663;BME280;30381;52.754;18.258;2023-04-30T20:23:15;101302.13;;;7.82;53.51
44663;BME280;30381;52.754;18.258;2023-04-30T20:25:46;101305.36;;;7.79;53.62
44663;BME280;30381;52.754;18.258;2023-04-30T20:28:27;101309.69;;;7.76;53.81
44663;BME280;30381;52.754;18.258;2023-04-30T20:30:55;101307.61;;;7.73;53.75
44663;BME280;30381;52.754;18.258;2023-04-30T23:02:04;101409.48;;;5.10;62.26
44663;BME280;30381;52.754;18.258;2023-04-30T23:05:02;101406.75;;;5.05;62.48
44663;BME280;30381;52.754;18.258;2023-04-30T23:12:49;101413.68;;;4.93;62.93
44663;BME280;30381;52.754;18.258;2023-04-30T23:20:56;101416.95;;;4.82;63.56
44663;BME280;30381;52.754;18.258;2023-04-30T23:26:15;101415.41;;;4.72;63.88
44663;BME280;30381;52.754;18.258;2023-04-30T23:37:08;101407.13;;;4.55;64.76
44663;BME280;30381;52.754;18.258;2023-04-30T23:39:37;101404.77;;;4.50;64.80
44663;BME280;30381;52.754;18.258;2023-04-30T23:50:28;101409.77;;;4.29;65.44
44663;BME280;30381;52.754;18.258;2023-04-30T23:52:57;101409.31;;;4.23;65.73
44663;BME280;30381;52.754;18.258;2023-04-30T23:55:23;101408.73;;;4.19;66.00
